SAS1228 EKYT-EKCH
Flight info
| Callsign | SAS1228 |
|---|---|
| Flight time | 0h 29m |
| Altitude | 17000 |
| Route | DCT TNO DCT |
| Aircraft | A319/M-SDE2E3FGIJ1RWXY/E |
Departure
| Time | 2026-04-24 04:22 |
|---|---|
| Airport | Aalborg Airport (EKYT) |
Arrival
| Time | 2026-04-24 04:52 |
|---|---|
| Airport | Copenhagen Kastrup Airport (EKCH) |
| Time | Latitude | Longitude | Altitude | Speed | Heading |
|---|---|---|---|---|---|
| 2026-04-24 04:07 | 57.08710 | 9.86983 | 19 ft | 0 kts | 55° |
| 2026-04-24 04:11 | 57.08708 | 9.86978 | 19 ft | 3 kts | 55° |
| 2026-04-24 04:11 | 57.08693 | 9.86938 | 19 ft | 4 kts | 55° |
| 2026-04-24 04:12 | 57.08681 | 9.86904 | 21 ft | 4 kts | 54° |
| 2026-04-24 04:12 | 57.08664 | 9.86878 | 19 ft | 4 kts | 353° |
| 2026-04-24 04:12 | 57.08645 | 9.86898 | 19 ft | 4 kts | 315° |
| 2026-04-24 04:12 | 57.08641 | 9.86907 | 19 ft | 0 kts | 315° |
| 2026-04-24 04:16 | 57.08644 | 9.86902 | 19 ft | 2 kts | 315° |
| 2026-04-24 04:16 | 57.08662 | 9.86869 | 20 ft | 5 kts | 317° |
| 2026-04-24 04:16 | 57.08699 | 9.86808 | 20 ft | 9 kts | 318° |
| 2026-04-24 04:16 | 57.08755 | 9.86722 | 20 ft | 12 kts | 321° |
| 2026-04-24 04:17 | 57.08832 | 9.86609 | 20 ft | 16 kts | 321° |
| 2026-04-24 04:17 | 57.08918 | 9.86485 | 19 ft | 16 kts | 321° |
| 2026-04-24 04:17 | 57.09000 | 9.86366 | 20 ft | 15 kts | 323° |
| 2026-04-24 04:17 | 57.09090 | 9.86240 | 20 ft | 18 kts | 323° |
| 2026-04-24 04:18 | 57.09187 | 9.86104 | 21 ft | 15 kts | 322° |
| 2026-04-24 04:18 | 57.09250 | 9.86016 | 20 ft | 11 kts | 322° |
| 2026-04-24 04:18 | 57.09305 | 9.85939 | 20 ft | 7 kts | 328° |
| 2026-04-24 04:18 | 57.09348 | 9.85968 | 20 ft | 9 kts | 69° |
| 2026-04-24 04:19 | 57.09358 | 9.86098 | 19 ft | 12 kts | 83° |
| 2026-04-24 04:19 | 57.09369 | 9.86272 | 19 ft | 15 kts | 83° |
| 2026-04-24 04:19 | 57.09381 | 9.86469 | 19 ft | 16 kts | 83° |
| 2026-04-24 04:19 | 57.09394 | 9.86670 | 19 ft | 16 kts | 83° |
| 2026-04-24 04:20 | 57.09409 | 9.86884 | 19 ft | 17 kts | 83° |
| 2026-04-24 04:20 | 57.09423 | 9.87114 | 19 ft | 19 kts | 83° |
| 2026-04-24 04:20 | 57.09439 | 9.87356 | 19 ft | 19 kts | 83° |
| 2026-04-24 04:20 | 57.09454 | 9.87584 | 19 ft | 15 kts | 83° |
| 2026-04-24 04:21 | 57.09496 | 9.87726 | 19 ft | 13 kts | 30° |
| 2026-04-24 04:21 | 57.09596 | 9.87718 | 20 ft | 14 kts | 333° |
| 2026-04-24 04:21 | 57.09647 | 9.87599 | 19 ft | 15 kts | 276° |
| 2026-04-24 04:21 | 57.09611 | 9.87062 | 19 ft | 78 kts | 264° |
| 2026-04-24 04:22 | 57.09523 | 9.85662 | 21 ft | 140 kts | 263° |
| 2026-04-24 04:22 | 57.09401 | 9.83814 | 543 ft | 142 kts | 263° |
| 2026-04-24 04:22 | 57.09286 | 9.82023 | 1198 ft | 141 kts | 264° |
| 2026-04-24 04:22 | 57.09163 | 9.80193 | 1667 ft | 151 kts | 263° |
| 2026-04-24 04:23 | 57.09026 | 9.78183 | 2110 ft | 165 kts | 263° |
| 2026-04-24 04:23 | 57.08669 | 9.76103 | 2635 ft | 179 kts | 240° |
| 2026-04-24 04:23 | 57.07733 | 9.74453 | 3111 ft | 197 kts | 210° |
| 2026-04-24 04:23 | 57.06342 | 9.73753 | 3521 ft | 222 kts | 181° |
| 2026-04-24 04:24 | 57.04767 | 9.74310 | 4073 ft | 242 kts | 156° |
| 2026-04-24 04:24 | 57.03295 | 9.75923 | 4760 ft | 259 kts | 142° |
| 2026-04-24 04:24 | 57.01814 | 9.78005 | 5477 ft | 276 kts | 141° |
| 2026-04-24 04:24 | 57.00270 | 9.80183 | 6426 ft | 281 kts | 142° |
| 2026-04-24 04:25 | 56.98673 | 9.82406 | 7142 ft | 300 kts | 142° |
| 2026-04-24 04:25 | 56.96944 | 9.84804 | 7583 ft | 323 kts | 142° |
| 2026-04-24 04:25 | 56.95078 | 9.87386 | 7938 ft | 348 kts | 142° |
| 2026-04-24 04:25 | 56.93100 | 9.90115 | 8524 ft | 360 kts | 142° |
| 2026-04-24 04:26 | 56.91079 | 9.92897 | 9280 ft | 367 kts | 142° |
| 2026-04-24 04:26 | 56.89021 | 9.95728 | 10026 ft | 373 kts | 142° |
| 2026-04-24 04:26 | 56.86931 | 9.98605 | 10717 ft | 380 kts | 142° |
| 2026-04-24 04:26 | 56.84798 | 10.01536 | 11385 ft | 387 kts | 142° |
| 2026-04-24 04:27 | 56.82631 | 10.04514 | 12047 ft | 393 kts | 142° |
| 2026-04-24 04:27 | 56.80428 | 10.07540 | 12671 ft | 400 kts | 142° |
| 2026-04-24 04:27 | 56.78187 | 10.10605 | 13342 ft | 405 kts | 142° |
| 2026-04-24 04:27 | 56.75924 | 10.13699 | 14017 ft | 408 kts | 142° |
| 2026-04-24 04:28 | 56.73638 | 10.16819 | 14674 ft | 413 kts | 143° |
| 2026-04-24 04:28 | 56.71329 | 10.19965 | 15342 ft | 416 kts | 143° |
| 2026-04-24 04:28 | 56.68999 | 10.23126 | 15993 ft | 420 kts | 143° |
| 2026-04-24 04:28 | 56.66646 | 10.26315 | 16637 ft | 424 kts | 143° |
| 2026-04-24 04:29 | 56.64270 | 10.29533 | 17009 ft | 427 kts | 143° |
| 2026-04-24 04:29 | 56.61889 | 10.32758 | 17110 ft | 427 kts | 143° |
| 2026-04-24 04:29 | 56.59509 | 10.35977 | 17119 ft | 427 kts | 143° |
| 2026-04-24 04:29 | 56.57157 | 10.39150 | 17119 ft | 427 kts | 143° |
| 2026-04-24 04:30 | 56.54774 | 10.42363 | 17119 ft | 427 kts | 143° |
| 2026-04-24 04:30 | 56.52392 | 10.45572 | 17118 ft | 427 kts | 143° |
| 2026-04-24 04:30 | 56.50004 | 10.48782 | 17119 ft | 427 kts | 143° |
| 2026-04-24 04:30 | 56.47678 | 10.52120 | 17118 ft | 427 kts | 136° |
| 2026-04-24 04:31 | 56.45575 | 10.55912 | 17111 ft | 427 kts | 134° |
| 2026-04-24 04:31 | 56.43477 | 10.59710 | 17111 ft | 427 kts | 134° |
| 2026-04-24 04:31 | 56.41376 | 10.63511 | 17110 ft | 427 kts | 134° |
| 2026-04-24 04:31 | 56.39278 | 10.67304 | 17110 ft | 427 kts | 134° |
| 2026-04-24 04:32 | 56.37178 | 10.71100 | 17111 ft | 427 kts | 134° |
| 2026-04-24 04:32 | 56.35076 | 10.74895 | 17113 ft | 427 kts | 134° |
| 2026-04-24 04:32 | 56.32974 | 10.78681 | 17115 ft | 427 kts | 134° |
| 2026-04-24 04:32 | 56.30870 | 10.82464 | 17116 ft | 427 kts | 135° |
| 2026-04-24 04:33 | 56.28765 | 10.86244 | 17116 ft | 427 kts | 135° |
| 2026-04-24 04:33 | 56.26682 | 10.89972 | 17117 ft | 427 kts | 135° |
| 2026-04-24 04:33 | 56.24574 | 10.93739 | 17117 ft | 427 kts | 135° |
| 2026-04-24 04:33 | 56.22466 | 10.97505 | 17117 ft | 427 kts | 135° |
| 2026-04-24 04:34 | 56.20356 | 11.01267 | 17117 ft | 427 kts | 135° |
| 2026-04-24 04:34 | 56.18240 | 11.05031 | 17069 ft | 428 kts | 135° |
| 2026-04-24 04:34 | 56.16127 | 11.08784 | 16621 ft | 425 kts | 135° |
| 2026-04-24 04:34 | 56.14041 | 11.12486 | 16219 ft | 417 kts | 135° |
| 2026-04-24 04:35 | 56.12000 | 11.16099 | 15818 ft | 407 kts | 135° |
| 2026-04-24 04:35 | 56.10009 | 11.19620 | 15423 ft | 398 kts | 135° |
| 2026-04-24 04:35 | 56.08060 | 11.23064 | 15020 ft | 389 kts | 134° |
| 2026-04-24 04:35 | 56.06150 | 11.26430 | 14618 ft | 381 kts | 134° |
| 2026-04-24 04:36 | 56.04277 | 11.29725 | 14220 ft | 374 kts | 134° |
| 2026-04-24 04:36 | 56.02436 | 11.32966 | 13820 ft | 368 kts | 134° |
| 2026-04-24 04:36 | 56.00625 | 11.36150 | 13420 ft | 363 kts | 134° |
| 2026-04-24 04:36 | 55.98839 | 11.39282 | 13016 ft | 358 kts | 134° |
| 2026-04-24 04:37 | 55.97073 | 11.42374 | 12618 ft | 353 kts | 134° |
| 2026-04-24 04:37 | 55.95330 | 11.45426 | 12217 ft | 349 kts | 134° |
| 2026-04-24 04:37 | 55.93606 | 11.48439 | 11816 ft | 345 kts | 134° |
| 2026-04-24 04:37 | 55.91920 | 11.51380 | 11425 ft | 342 kts | 134° |
| 2026-04-24 04:38 | 55.90225 | 11.54336 | 11023 ft | 340 kts | 134° |
| 2026-04-24 04:38 | 55.88540 | 11.57267 | 10620 ft | 336 kts | 134° |
| 2026-04-24 04:38 | 55.86868 | 11.60167 | 10220 ft | 334 kts | 134° |
| 2026-04-24 04:38 | 55.85216 | 11.63026 | 9918 ft | 328 kts | 134° |
| 2026-04-24 04:39 | 55.83598 | 11.65819 | 9643 ft | 320 kts | 134° |
| 2026-04-24 04:39 | 55.82011 | 11.68560 | 9366 ft | 314 kts | 133° |
| 2026-04-24 04:39 | 55.80455 | 11.71248 | 9088 ft | 309 kts | 134° |
| 2026-04-24 04:39 | 55.78923 | 11.73891 | 8813 ft | 304 kts | 133° |
| 2026-04-24 04:40 | 55.77412 | 11.76498 | 8540 ft | 300 kts | 133° |
| 2026-04-24 04:40 | 55.75920 | 11.79069 | 8268 ft | 297 kts | 133° |
| 2026-04-24 04:40 | 55.74441 | 11.81620 | 7992 ft | 295 kts | 133° |
| 2026-04-24 04:40 | 55.72990 | 11.84120 | 7715 ft | 293 kts | 133° |
| 2026-04-24 04:41 | 55.71531 | 11.86629 | 7441 ft | 291 kts | 134° |
| 2026-04-24 04:41 | 55.70082 | 11.89115 | 7160 ft | 289 kts | 134° |
| 2026-04-24 04:41 | 55.68639 | 11.91582 | 6890 ft | 286 kts | 134° |
| 2026-04-24 04:41 | 55.67218 | 11.94010 | 6614 ft | 282 kts | 134° |
| 2026-04-24 04:42 | 55.65816 | 11.96401 | 6339 ft | 278 kts | 134° |
| 2026-04-24 04:42 | 55.64434 | 11.98758 | 6064 ft | 273 kts | 134° |
| 2026-04-24 04:42 | 55.63074 | 12.01079 | 5788 ft | 270 kts | 134° |
| 2026-04-24 04:42 | 55.61728 | 12.03376 | 5510 ft | 268 kts | 134° |
| 2026-04-24 04:43 | 55.60393 | 12.05656 | 5205 ft | 266 kts | 134° |
| 2026-04-24 04:43 | 55.59063 | 12.07928 | 4928 ft | 265 kts | 134° |
| 2026-04-24 04:43 | 55.57747 | 12.10173 | 4665 ft | 261 kts | 133° |
| 2026-04-24 04:43 | 55.56537 | 12.12523 | 4406 ft | 256 kts | 125° |
| 2026-04-24 04:44 | 55.55595 | 12.15129 | 4151 ft | 248 kts | 114° |
| 2026-04-24 04:44 | 55.54947 | 12.17898 | 3884 ft | 240 kts | 105° |
| 2026-04-24 04:44 | 55.54441 | 12.20675 | 3626 ft | 234 kts | 104° |
| 2026-04-24 04:44 | 55.53946 | 12.23386 | 3362 ft | 229 kts | 105° |
| 2026-04-24 04:45 | 55.53464 | 12.25974 | 3266 ft | 215 kts | 105° |
| 2026-04-24 04:45 | 55.53006 | 12.28413 | 3142 ft | 204 kts | 104° |
| 2026-04-24 04:45 | 55.52578 | 12.30741 | 3048 ft | 196 kts | 104° |
| 2026-04-24 04:45 | 55.52182 | 12.32953 | 3061 ft | 178 kts | 103° |
| 2026-04-24 04:46 | 55.51832 | 12.34942 | 2978 ft | 165 kts | 102° |
| 2026-04-24 04:46 | 55.51615 | 12.36213 | 2875 ft | 165 kts | 102° |
| 2026-04-24 04:46 | 55.51244 | 12.38894 | 2725 ft | 169 kts | 96° |
| 2026-04-24 04:46 | 55.51120 | 12.40248 | 2742 ft | 169 kts | 94° |
| 2026-04-24 04:47 | 55.50984 | 12.42311 | 2758 ft | 169 kts | 91° |
| 2026-04-24 04:47 | 55.50878 | 12.44377 | 2768 ft | 169 kts | 91° |
| 2026-04-24 04:47 | 55.50775 | 12.46456 | 2602 ft | 169 kts | 89° |
| 2026-04-24 04:47 | 55.50828 | 12.48505 | 2445 ft | 166 kts | 76° |
| 2026-04-24 04:48 | 55.51260 | 12.50298 | 2244 ft | 151 kts | 49° |
| 2026-04-24 04:48 | 55.52019 | 12.51468 | 2062 ft | 141 kts | 32° |
| 2026-04-24 04:48 | 55.52819 | 12.52456 | 1965 ft | 140 kts | 31° |
| 2026-04-24 04:48 | 55.53613 | 12.53428 | 1804 ft | 135 kts | 34° |
| 2026-04-24 04:49 | 55.54344 | 12.54414 | 1717 ft | 131 kts | 34° |
| 2026-04-24 04:49 | 55.55070 | 12.55363 | 1531 ft | 130 kts | 34° |
| 2026-04-24 04:49 | 55.55774 | 12.56359 | 1313 ft | 129 kts | 37° |
| 2026-04-24 04:49 | 55.56469 | 12.57370 | 1059 ft | 129 kts | 38° |
| 2026-04-24 04:50 | 55.57145 | 12.58413 | 852 ft | 129 kts | 40° |
| 2026-04-24 04:50 | 55.57819 | 12.59450 | 694 ft | 128 kts | 38° |
| 2026-04-24 04:50 | 55.58499 | 12.60477 | 539 ft | 128 kts | 39° |
| 2026-04-24 04:50 | 55.59165 | 12.61525 | 374 ft | 128 kts | 41° |
| 2026-04-24 04:51 | 55.59832 | 12.62560 | 197 ft | 127 kts | 39° |
| 2026-04-24 04:51 | 55.60495 | 12.63588 | 34 ft | 124 kts | 40° |
| 2026-04-24 04:51 | 55.61060 | 12.64451 | 16 ft | 87 kts | 41° |
| 2026-04-24 04:51 | 55.61421 | 12.65023 | 18 ft | 66 kts | 41° |
| 2026-04-24 04:52 | 55.61772 | 12.65564 | 17 ft | 59 kts | 41° |
| 2026-04-24 04:52 | 55.62005 | 12.65924 | 18 ft | 29 kts | 41° |
| 2026-04-24 04:52 | 55.62141 | 12.66118 | 17 ft | 20 kts | 26° |
| 2026-04-24 04:52 | 55.62258 | 12.66133 | 16 ft | 17 kts | 343° |
| 2026-04-24 04:53 | 55.62346 | 12.66079 | 17 ft | 12 kts | 359° |
| 2026-04-24 04:53 | 55.62422 | 12.66162 | 19 ft | 14 kts | 39° |
| 2026-04-24 04:53 | 55.62496 | 12.66211 | 17 ft | 11 kts | 343° |
| 2026-04-24 04:53 | 55.62562 | 12.66139 | 17 ft | 13 kts | 348° |
| 2026-04-24 04:54 | 55.62638 | 12.66154 | 17 ft | 12 kts | 32° |
| 2026-04-24 04:54 | 55.62705 | 12.66257 | 19 ft | 12 kts | 41° |
| 2026-04-24 04:54 | 55.62773 | 12.66361 | 17 ft | 14 kts | 41° |
| 2026-04-24 04:54 | 55.62844 | 12.66471 | 18 ft | 11 kts | 41° |
| 2026-04-24 04:55 | 55.62874 | 12.66542 | 19 ft | 7 kts | 88° |
| 2026-04-24 04:55 | 55.62847 | 12.66605 | 19 ft | 5 kts | 132° |
| 2026-04-24 04:55 | 55.62837 | 12.66627 | 17 ft | 0 kts | 131° |